sensor_id;sensor_type;location;lat;lon;timestamp;P1;durP1;ratioP1;P2;durP2;ratioP2
21661;SDS011;10992;48.170;8.596;2023-02-10T00:01:23;49.72;;;25.15;;
21661;SDS011;10992;48.170;8.596;2023-02-10T00:03:51;44.40;;;24.58;;
21661;SDS011;10992;48.170;8.596;2023-02-10T00:06:19;42.83;;;24.27;;
21661;SDS011;10992;48.170;8.596;2023-02-10T00:08:50;43.08;;;24.02;;
21661;SDS011;10992;48.170;8.596;2023-02-10T00:11:19;42.58;;;24.30;;
21661;SDS011;10992;48.170;8.596;2023-02-10T00:14:06;42.90;;;24.85;;
21661;SDS011;10992;48.170;8.596;2023-02-10T00:16:33;40.03;;;22.85;;
21661;SDS011;10992;48.170;8.596;2023-02-10T00:19:01;37.80;;;21.95;;
21661;SDS011;10992;48.170;8.596;2023-02-10T00:21:27;38.15;;;23.02;;
21661;SDS011;10992;48.170;8.596;2023-02-10T00:23:55;42.15;;;22.55;;
21661;SDS011;10992;48.170;8.596;2023-02-10T00:26:22;37.38;;;22.45;;
21661;SDS011;10992;48.170;8.596;2023-02-10T00:28:50;38.80;;;22.63;;
21661;SDS011;10992;48.170;8.596;2023-02-10T00:31:20;41.10;;;23.23;;
21661;SDS011;10992;48.170;8.596;2023-02-10T00:33:47;40.63;;;22.23;;
21661;SDS011;10992;48.170;8.596;2023-02-10T00:36:16;38.92;;;22.33;;
21661;SDS011;10992;48.170;8.596;2023-02-10T00:38:43;43.78;;;24.45;;
21661;SDS011;10992;48.170;8.596;2023-02-10T00:41:14;45.78;;;25.33;;
21661;SDS011;10992;48.170;8.596;2023-02-10T00:43:42;44.05;;;25.48;;
21661;SDS011;10992;48.170;8.596;2023-02-10T00:46:14;40.72;;;23.58;;
21661;SDS011;10992;48.170;8.596;2023-02-10T00:48:43;42.15;;;24.85;;
21661;SDS011;10992;48.170;8.596;2023-02-10T00:51:10;40.25;;;23.20;;
21661;SDS011;10992;48.170;8.596;2023-02-10T00:53:38;45.45;;;26.50;;
21661;SDS011;10992;48.170;8.596;2023-02-10T00:56:06;42.58;;;24.48;;
21661;SDS011;10992;48.170;8.596;2023-02-10T00:58:33;45.40;;;26.35;;
21661;SDS011;10992;48.170;8.596;2023-02-10T01:01:01;42.90;;;24.60;;
21661;SDS011;10992;48.170;8.596;2023-02-10T01:03:29;44.85;;;24.10;;
21661;SDS011;10992;48.170;8.596;2023-02-10T01:05:56;46.53;;;25.90;;
21661;SDS011;10992;48.170;8.596;2023-02-10T01:08:23;46.38;;;24.40;;
21661;SDS011;10992;48.170;8.596;2023-02-10T01:10:59;45.45;;;23.80;;
21661;SDS011;10992;48.170;8.596;2023-02-10T01:13:29;43.92;;;23.27;;
21661;SDS011;10992;48.170;8.596;2023-02-10T01:15:56;36.65;;;22.20;;
21661;SDS011;10992;48.170;8.596;2023-02-10T01:18:23;43.42;;;23.45;;
21661;SDS011;10992;48.170;8.596;2023-02-10T01:20:50;39.15;;;21.63;;
21661;SDS011;10992;48.170;8.596;2023-02-10T01:23:17;38.17;;;21.10;;
21661;SDS011;10992;48.170;8.596;2023-02-10T01:25:45;41.78;;;23.05;;
21661;SDS011;10992;48.170;8.596;2023-02-10T01:28:12;38.47;;;22.30;;
21661;SDS011;10992;48.170;8.596;2023-02-10T01:30:39;35.90;;;21.30;;
21661;SDS011;10992;48.170;8.596;2023-02-10T01:33:06;37.00;;;22.70;;
21661;SDS011;10992;48.170;8.596;2023-02-10T01:35:33;42.85;;;23.33;;
21661;SDS011;10992;48.170;8.596;2023-02-10T01:38:04;41.30;;;22.33;;
21661;SDS011;10992;48.170;8.596;2023-02-10T01:40:30;39.75;;;24.55;;
21661;SDS011;10992;48.170;8.596;2023-02-10T01:42:57;42.13;;;22.98;;
21661;SDS011;10992;48.170;8.596;2023-02-10T01:45:28;42.72;;;24.50;;
21661;SDS011;10992;48.170;8.596;2023-02-10T01:48:00;47.08;;;24.52;;
21661;SDS011;10992;48.170;8.596;2023-02-10T01:50:29;42.15;;;24.02;;
21661;SDS011;10992;48.170;8.596;2023-02-10T01:53:02;47.72;;;25.00;;
21661;SDS011;10992;48.170;8.596;2023-02-10T01:55:31;42.95;;;24.73;;
21661;SDS011;10992;48.170;8.596;2023-02-10T01:58:05;42.97;;;23.88;;
21661;SDS011;10992;48.170;8.596;2023-02-10T02:00:34;39.33;;;23.95;;
21661;SDS011;10992;48.170;8.596;2023-02-10T02:03:02;40.20;;;23.85;;
21661;SDS011;10992;48.170;8.596;2023-02-10T02:05:36;39.15;;;23.23;;
21661;SDS011;10992;48.170;8.596;2023-02-10T02:08:13;43.17;;;23.73;;
21661;SDS011;10992;48.170;8.596;2023-02-10T02:22:26;39.97;;;23.35;;
21661;SDS011;10992;48.170;8.596;2023-02-10T02:33:24;39.70;;;23.25;;
21661;SDS011;10992;48.170;8.596;2023-02-10T02:36:04;39.97;;;24.02;;
21661;SDS011;10992;48.170;8.596;2023-02-10T02:38:41;44.97;;;25.25;;
21661;SDS011;10992;48.170;8.596;2023-02-10T02:41:08;46.45;;;26.00;;
21661;SDS011;10992;48.170;8.596;2023-02-10T02:43:37;41.22;;;24.13;;
21661;SDS011;10992;48.170;8.596;2023-02-10T02:46:12;40.05;;;22.80;;
21661;SDS011;10992;48.170;8.596;2023-02-10T02:51:42;41.33;;;24.23;;
21661;SDS011;10992;48.170;8.596;2023-02-10T02:54:34;44.45;;;23.90;;
21661;SDS011;10992;48.170;8.596;2023-02-10T02:57:14;45.35;;;25.15;;
21661;SDS011;10992;48.170;8.596;2023-02-10T02:59:51;55.13;;;28.33;;
21661;SDS011;10992;48.170;8.596;2023-02-10T03:02:25;55.88;;;27.65;;
21661;SDS011;10992;48.170;8.596;2023-02-10T03:04:55;48.88;;;26.95;;
21661;SDS011;10992;48.170;8.596;2023-02-10T03:07:23;50.30;;;27.45;;
21661;SDS011;10992;48.170;8.596;2023-02-10T03:09:51;53.80;;;27.45;;
21661;SDS011;10992;48.170;8.596;2023-02-10T03:12:18;54.95;;;28.67;;
21661;SDS011;10992;48.170;8.596;2023-02-10T03:14:45;46.70;;;26.80;;
21661;SDS011;10992;48.170;8.596;2023-02-10T03:17:12;57.00;;;27.52;;
21661;SDS011;10992;48.170;8.596;2023-02-10T03:19:39;51.00;;;28.52;;
21661;SDS011;10992;48.170;8.596;2023-02-10T03:22:06;56.80;;;28.50;;
21661;SDS011;10992;48.170;8.596;2023-02-10T03:24:33;52.55;;;28.52;;
21661;SDS011;10992;48.170;8.596;2023-02-10T03:27:00;50.72;;;28.02;;
21661;SDS011;10992;48.170;8.596;2023-02-10T03:29:28;51.15;;;27.85;;
21661;SDS011;10992;48.170;8.596;2023-02-10T03:31:55;53.65;;;27.77;;
21661;SDS011;10992;48.170;8.596;2023-02-10T03:34:21;50.33;;;27.52;;
21661;SDS011;10992;48.170;8.596;2023-02-10T03:36:49;50.95;;;28.58;;
21661;SDS011;10992;48.170;8.596;2023-02-10T03:39:16;53.33;;;27.52;;
21661;SDS011;10992;48.170;8.596;2023-02-10T03:41:43;53.70;;;27.17;;
21661;SDS011;10992;48.170;8.596;2023-02-10T03:44:10;45.33;;;25.45;;
21661;SDS011;10992;48.170;8.596;2023-02-10T03:46:37;43.17;;;25.10;;
21661;SDS011;10992;48.170;8.596;2023-02-10T03:49:04;46.95;;;24.85;;
21661;SDS011;10992;48.170;8.596;2023-02-10T03:51:31;47.78;;;26.00;;
21661;SDS011;10992;48.170;8.596;2023-02-10T03:53:58;49.78;;;25.95;;
21661;SDS011;10992;48.170;8.596;2023-02-10T03:56:25;48.10;;;26.17;;
21661;SDS011;10992;48.170;8.596;2023-02-10T03:58:55;49.92;;;26.73;;
21661;SDS011;10992;48.170;8.596;2023-02-10T04:01:22;57.08;;;28.90;;
21661;SDS011;10992;48.170;8.596;2023-02-10T04:03:51;58.45;;;29.75;;
21661;SDS011;10992;48.170;8.596;2023-02-10T04:06:18;50.53;;;27.65;;
21661;SDS011;10992;48.170;8.596;2023-02-10T04:08:46;55.65;;;28.40;;
21661;SDS011;10992;48.170;8.596;2023-02-10T04:11:14;57.88;;;29.20;;
21661;SDS011;10992;48.170;8.596;2023-02-10T04:13:41;59.63;;;30.13;;
21661;SDS011;10992;48.170;8.596;2023-02-10T04:16:09;60.88;;;32.60;;
21661;SDS011;10992;48.170;8.596;2023-02-10T04:18:39;59.72;;;30.77;;
21661;SDS011;10992;48.170;8.596;2023-02-10T04:21:08;59.67;;;30.48;;
21661;SDS011;10992;48.170;8.596;2023-02-10T04:23:36;58.30;;;31.58;;
21661;SDS011;10992;48.170;8.596;2023-02-10T04:26:04;55.45;;;27.50;;
21661;SDS011;10992;48.170;8.596;2023-02-10T04:28:31;52.10;;;26.15;;
21661;SDS011;10992;48.170;8.596;2023-02-10T04:30:59;40.95;;;25.35;;
21661;SDS011;10992;48.170;8.596;2023-02-10T04:33:26;48.25;;;24.52;;
21661;SDS011;10992;48.170;8.596;2023-02-10T04:35:53;48.15;;;26.92;;
21661;SDS011;10992;48.170;8.596;2023-02-10T04:38:21;48.17;;;26.25;;
21661;SDS011;10992;48.170;8.596;2023-02-10T04:40:49;43.72;;;25.15;;
21661;SDS011;10992;48.170;8.596;2023-02-10T04:43:16;44.80;;;25.80;;
21661;SDS011;10992;48.170;8.596;2023-02-10T04:45:43;45.05;;;24.60;;
21661;SDS011;10992;48.170;8.596;2023-02-10T04:48:11;40.85;;;23.55;;
21661;SDS011;10992;48.170;8.596;2023-02-10T04:50:40;45.40;;;24.58;;
21661;SDS011;10992;48.170;8.596;2023-02-10T04:53:08;48.55;;;24.67;;
21661;SDS011;10992;48.170;8.596;2023-02-10T04:55:35;46.65;;;24.50;;
21661;SDS011;10992;48.170;8.596;2023-02-10T04:58:02;43.90;;;24.20;;
21661;SDS011;10992;48.170;8.596;2023-02-10T05:00:29;39.05;;;22.92;;
21661;SDS011;10992;48.170;8.596;2023-02-10T05:02:56;44.33;;;24.27;;
21661;SDS011;10992;48.170;8.596;2023-02-10T05:05:23;39.85;;;22.17;;
21661;SDS011;10992;48.170;8.596;2023-02-10T05:07:51;48.85;;;24.00;;
21661;SDS011;10992;48.170;8.596;2023-02-10T05:10:19;43.17;;;23.67;;
21661;SDS011;10992;48.170;8.596;2023-02-10T05:12:46;45.97;;;24.52;;
21661;SDS011;10992;48.170;8.596;2023-02-10T05:15:13;46.03;;;25.05;;
21661;SDS011;10992;48.170;8.596;2023-02-10T05:17:40;49.92;;;25.73;;
21661;SDS011;10992;48.170;8.596;2023-02-10T05:20:08;45.75;;;25.58;;
21661;SDS011;10992;48.170;8.596;2023-02-10T05:22:36;47.92;;;25.30;;
21661;SDS011;10992;48.170;8.596;2023-02-10T05:25:04;55.60;;;31.95;;
21661;SDS011;10992;48.170;8.596;2023-02-10T05:27:32;62.42;;;31.00;;
21661;SDS011;10992;48.170;8.596;2023-02-10T05:29:59;54.97;;;29.92;;
21661;SDS011;10992;48.170;8.596;2023-02-10T05:32:26;51.75;;;28.73;;
21661;SDS011;10992;48.170;8.596;2023-02-10T05:34:52;46.65;;;25.92;;
21661;SDS011;10992;48.170;8.596;2023-02-10T05:37:19;48.70;;;26.77;;
21661;SDS011;10992;48.170;8.596;2023-02-10T05:39:46;54.47;;;28.42;;
21661;SDS011;10992;48.170;8.596;2023-02-10T05:42:13;49.45;;;26.98;;
21661;SDS011;10992;48.170;8.596;2023-02-10T05:44:40;54.15;;;28.58;;
21661;SDS011;10992;48.170;8.596;2023-02-10T05:47:07;51.95;;;27.77;;
21661;SDS011;10992;48.170;8.596;2023-02-10T05:49:35;55.97;;;29.00;;
21661;SDS011;10992;48.170;8.596;2023-02-10T05:52:02;47.83;;;27.20;;
21661;SDS011;10992;48.170;8.596;2023-02-10T05:54:29;49.85;;;28.23;;
21661;SDS011;10992;48.170;8.596;2023-02-10T05:56:57;58.40;;;28.00;;
21661;SDS011;10992;48.170;8.596;2023-02-10T05:59:24;56.40;;;26.85;;
21661;SDS011;10992;48.170;8.596;2023-02-10T06:01:51;52.92;;;27.33;;
21661;SDS011;10992;48.170;8.596;2023-02-10T06:04:18;53.17;;;28.42;;
21661;SDS011;10992;48.170;8.596;2023-02-10T06:06:44;52.08;;;28.17;;
21661;SDS011;10992;48.170;8.596;2023-02-10T06:09:12;52.45;;;27.70;;
21661;SDS011;10992;48.170;8.596;2023-02-10T06:11:38;54.67;;;29.08;;
21661;SDS011;10992;48.170;8.596;2023-02-10T06:14:05;57.70;;;30.40;;
21661;SDS011;10992;48.170;8.596;2023-02-10T06:16:32;54.42;;;28.10;;
21661;SDS011;10992;48.170;8.596;2023-02-10T06:18:59;54.58;;;28.40;;
21661;SDS011;10992;48.170;8.596;2023-02-10T06:21:26;73.95;;;36.70;;
21661;SDS011;10992;48.170;8.596;2023-02-10T06:23:53;59.38;;;30.35;;
21661;SDS011;10992;48.170;8.596;2023-02-10T06:26:21;58.80;;;30.83;;
21661;SDS011;10992;48.170;8.596;2023-02-10T06:28:49;58.72;;;30.25;;
21661;SDS011;10992;48.170;8.596;2023-02-10T06:31:17;48.75;;;27.45;;
21661;SDS011;10992;48.170;8.596;2023-02-10T06:33:44;51.55;;;28.63;;
21661;SDS011;10992;48.170;8.596;2023-02-10T06:36:11;61.17;;;31.08;;
21661;SDS011;10992;48.170;8.596;2023-02-10T06:38:38;52.55;;;29.45;;
21661;SDS011;10992;48.170;8.596;2023-02-10T06:41:05;55.33;;;29.23;;
21661;SDS011;10992;48.170;8.596;2023-02-10T06:43:32;60.00;;;30.58;;
21661;SDS011;10992;48.170;8.596;2023-02-10T06:45:59;59.25;;;31.73;;
21661;SDS011;10992;48.170;8.596;2023-02-10T06:48:26;58.40;;;29.60;;
21661;SDS011;10992;48.170;8.596;2023-02-10T06:50:54;53.15;;;29.95;;
21661;SDS011;10992;48.170;8.596;2023-02-10T06:53:21;54.17;;;30.08;;
21661;SDS011;10992;48.170;8.596;2023-02-10T06:55:48;50.17;;;27.90;;
21661;SDS011;10992;48.170;8.596;2023-02-10T06:58:15;52.65;;;28.30;;
21661;SDS011;10992;48.170;8.596;2023-02-10T07:00:43;50.00;;;27.63;;
21661;SDS011;10992;48.170;8.596;2023-02-10T07:03:11;50.70;;;26.88;;
21661;SDS011;10992;48.170;8.596;2023-02-10T07:05:40;51.72;;;29.10;;
21661;SDS011;10992;48.170;8.596;2023-02-10T07:08:08;49.80;;;28.98;;
21661;SDS011;10992;48.170;8.596;2023-02-10T07:10:35;54.67;;;31.02;;
21661;SDS011;10992;48.170;8.596;2023-02-10T07:13:02;63.97;;;33.13;;
21661;SDS011;10992;48.170;8.596;2023-02-10T07:15:30;58.72;;;31.98;;
21661;SDS011;10992;48.170;8.596;2023-02-10T07:17:57;54.33;;;28.95;;
21661;SDS011;10992;48.170;8.596;2023-02-10T07:20:24;55.65;;;31.42;;
21661;SDS011;10992;48.170;8.596;2023-02-10T07:22:52;57.80;;;31.73;;
21661;SDS011;10992;48.170;8.596;2023-02-10T07:25:19;55.45;;;29.98;;
21661;SDS011;10992;48.170;8.596;2023-02-10T07:27:46;48.65;;;27.15;;
21661;SDS011;10992;48.170;8.596;2023-02-10T07:30:13;43.22;;;24.17;;
21661;SDS011;10992;48.170;8.596;2023-02-10T07:32:40;38.35;;;21.75;;
21661;SDS011;10992;48.170;8.596;2023-02-10T07:35:08;34.72;;;22.23;;
21661;SDS011;10992;48.170;8.596;2023-02-10T07:37:35;33.45;;;19.90;;
21661;SDS011;10992;48.170;8.596;2023-02-10T07:40:03;37.85;;;20.80;;
21661;SDS011;10992;48.170;8.596;2023-02-10T07:42:31;33.83;;;19.25;;
21661;SDS011;10992;48.170;8.596;2023-02-10T07:45:24;37.83;;;20.00;;
21661;SDS011;10992;48.170;8.596;2023-02-10T07:47:57;29.15;;;17.90;;
21661;SDS011;10992;48.170;8.596;2023-02-10T07:50:25;29.05;;;19.73;;
21661;SDS011;10992;48.170;8.596;2023-02-10T07:52:56;32.72;;;19.25;;
21661;SDS011;10992;48.170;8.596;2023-02-10T07:55:23;30.70;;;18.85;;
21661;SDS011;10992;48.170;8.596;2023-02-10T07:57:51;31.83;;;19.15;;
21661;SDS011;10992;48.170;8.596;2023-02-10T08:00:19;33.15;;;20.40;;
21661;SDS011;10992;48.170;8.596;2023-02-10T08:02:46;32.45;;;21.08;;
21661;SDS011;10992;48.170;8.596;2023-02-10T08:05:13;33.65;;;20.23;;
21661;SDS011;10992;48.170;8.596;2023-02-10T08:07:40;35.63;;;20.95;;
21661;SDS011;10992;48.170;8.596;2023-02-10T08:10:09;30.92;;;20.02;;
21661;SDS011;10992;48.170;8.596;2023-02-10T08:12:36;32.78;;;20.48;;
21661;SDS011;10992;48.170;8.596;2023-02-10T08:15:03;35.42;;;21.30;;
21661;SDS011;10992;48.170;8.596;2023-02-10T08:17:31;33.38;;;20.80;;
21661;SDS011;10992;48.170;8.596;2023-02-10T08:19:58;34.13;;;21.05;;
21661;SDS011;10992;48.170;8.596;2023-02-10T08:22:25;33.13;;;20.20;;
21661;SDS011;10992;48.170;8.596;2023-02-10T08:24:52;31.02;;;18.48;;
21661;SDS011;10992;48.170;8.596;2023-02-10T08:27:19;31.25;;;19.60;;
21661;SDS011;10992;48.170;8.596;2023-02-10T08:29:46;28.55;;;19.17;;
21661;SDS011;10992;48.170;8.596;2023-02-10T08:32:13;34.85;;;19.55;;
21661;SDS011;10992;48.170;8.596;2023-02-10T08:34:45;28.92;;;18.75;;
21661;SDS011;10992;48.170;8.596;2023-02-10T08:37:13;30.42;;;19.52;;
21661;SDS011;10992;48.170;8.596;2023-02-10T08:39:41;48.50;;;28.48;;
21661;SDS011;10992;48.170;8.596;2023-02-10T08:42:09;58.10;;;25.50;;
21661;SDS011;10992;48.170;8.596;2023-02-10T08:44:36;40.17;;;24.40;;
21661;SDS011;10992;48.170;8.596;2023-02-10T08:47:03;31.88;;;20.30;;
21661;SDS011;10992;48.170;8.596;2023-02-10T08:49:30;30.05;;;20.02;;
21661;SDS011;10992;48.170;8.596;2023-02-10T08:51:58;32.78;;;21.40;;
21661;SDS011;10992;48.170;8.596;2023-02-10T08:54:27;33.25;;;20.88;;
21661;SDS011;10992;48.170;8.596;2023-02-10T08:56:54;32.60;;;20.08;;
21661;SDS011;10992;48.170;8.596;2023-02-10T08:59:21;31.40;;;21.13;;
21661;SDS011;10992;48.170;8.596;2023-02-10T09:01:48;29.35;;;20.55;;
21661;SDS011;10992;48.170;8.596;2023-02-10T09:04:16;29.58;;;19.75;;
21661;SDS011;10992;48.170;8.596;2023-02-10T09:06:43;33.15;;;20.80;;
21661;SDS011;10992;48.170;8.596;2023-02-10T09:09:19;33.42;;;19.85;;
21661;SDS011;10992;48.170;8.596;2023-02-10T09:11:52;32.28;;;19.88;;
21661;SDS011;10992;48.170;8.596;2023-02-10T09:14:21;30.42;;;20.40;;
21661;SDS011;10992;48.170;8.596;2023-02-10T09:16:48;32.85;;;20.83;;
21661;SDS011;10992;48.170;8.596;2023-02-10T09:19:16;27.88;;;18.63;;
21661;SDS011;10992;48.170;8.596;2023-02-10T09:21:43;32.35;;;19.80;;
21661;SDS011;10992;48.170;8.596;2023-02-10T09:24:13;29.67;;;20.00;;
21661;SDS011;10992;48.170;8.596;2023-02-10T09:26:41;29.52;;;20.63;;
21661;SDS011;10992;48.170;8.596;2023-02-10T09:29:09;32.03;;;21.48;;
21661;SDS011;10992;48.170;8.596;2023-02-10T09:31:37;32.20;;;20.63;;
21661;SDS011;10992;48.170;8.596;2023-02-10T09:34:04;33.03;;;19.65;;
21661;SDS011;10992;48.170;8.596;2023-02-10T09:36:32;27.80;;;18.52;;
21661;SDS011;10992;48.170;8.596;2023-02-10T09:38:59;28.83;;;19.50;;
21661;SDS011;10992;48.170;8.596;2023-02-10T09:44:21;27.60;;;19.77;;
21661;SDS011;10992;48.170;8.596;2023-02-10T09:47:00;33.88;;;20.65;;
21661;SDS011;10992;48.170;8.596;2023-02-10T10:01:12;32.45;;;21.30;;
21661;SDS011;10992;48.170;8.596;2023-02-10T10:06:56;30.85;;;20.40;;
21661;SDS011;10992;48.170;8.596;2023-02-10T10:09:56;33.17;;;21.13;;
21661;SDS011;10992;48.170;8.596;2023-02-10T10:12:26;32.22;;;21.75;;
21661;SDS011;10992;48.170;8.596;2023-02-10T10:14:54;33.95;;;20.85;;
21661;SDS011;10992;48.170;8.596;2023-02-10T10:28:46;34.17;;;22.80;;
21661;SDS011;10992;48.170;8.596;2023-02-10T10:31:30;32.58;;;21.58;;
21661;SDS011;10992;48.170;8.596;2023-02-10T10:34:18;36.90;;;22.27;;
21661;SDS011;10992;48.170;8.596;2023-02-10T10:36:53;31.83;;;22.63;;
21661;SDS011;10992;48.170;8.596;2023-02-10T10:39:33;36.00;;;21.25;;
21661;SDS011;10992;48.170;8.596;2023-02-10T10:44:48;32.60;;;21.52;;
21661;SDS011;10992;48.170;8.596;2023-02-10T10:47:19;34.85;;;22.98;;
21661;SDS011;10992;48.170;8.596;2023-02-10T10:49:55;32.40;;;23.33;;
21661;SDS011;10992;48.170;8.596;2023-02-10T10:52:27;31.25;;;20.10;;
21661;SDS011;10992;48.170;8.596;2023-02-10T10:54:58;31.15;;;22.38;;
21661;SDS011;10992;48.170;8.596;2023-02-10T10:57:27;33.95;;;23.27;;
21661;SDS011;10992;48.170;8.596;2023-02-10T11:02:54;34.05;;;22.55;;
21661;SDS011;10992;48.170;8.596;2023-02-10T11:05:21;32.85;;;22.02;;
21661;SDS011;10992;48.170;8.596;2023-02-10T11:07:52;32.15;;;22.10;;
21661;SDS011;10992;48.170;8.596;2023-02-10T11:13:05;32.40;;;21.30;;
21661;SDS011;10992;48.170;8.596;2023-02-10T11:15:44;32.22;;;21.35;;
21661;SDS011;10992;48.170;8.596;2023-02-10T11:18:16;30.67;;;19.75;;
21661;SDS011;10992;48.170;8.596;2023-02-10T11:20:54;34.10;;;21.30;;
21661;SDS011;10992;48.170;8.596;2023-02-10T11:23:23;33.67;;;21.42;;
21661;SDS011;10992;48.170;8.596;2023-02-10T11:26:03;32.35;;;22.42;;
21661;SDS011;10992;48.170;8.596;2023-02-10T11:28:35;30.00;;;18.85;;
21661;SDS011;10992;48.170;8.596;2023-02-10T11:31:03;29.67;;;17.88;;
21661;SDS011;10992;48.170;8.596;2023-02-10T11:33:33;29.40;;;20.58;;
21661;SDS011;10992;48.170;8.596;2023-02-10T11:36:03;25.25;;;18.02;;
21661;SDS011;10992;48.170;8.596;2023-02-10T11:38:32;28.17;;;18.20;;
21661;SDS011;10992;48.170;8.596;2023-02-10T11:41:01;24.73;;;16.67;;
21661;SDS011;10992;48.170;8.596;2023-02-10T11:43:41;23.67;;;15.45;;
21661;SDS011;10992;48.170;8.596;2023-02-10T11:46:17;21.40;;;14.15;;
21661;SDS011;10992;48.170;8.596;2023-02-10T11:48:54;22.15;;;15.07;;
21661;SDS011;10992;48.170;8.596;2023-02-10T11:51:23;21.52;;;15.50;;
21661;SDS011;10992;48.170;8.596;2023-02-10T11:53:51;23.17;;;16.30;;
21661;SDS011;10992;48.170;8.596;2023-02-10T11:59:27;24.17;;;14.60;;
21661;SDS011;10992;48.170;8.596;2023-02-10T12:11:24;21.70;;;15.50;;
21661;SDS011;10992;48.170;8.596;2023-02-10T12:14:19;21.73;;;14.60;;
21661;SDS011;10992;48.170;8.596;2023-02-10T12:17:24;23.02;;;14.73;;
21661;SDS011;10992;48.170;8.596;2023-02-10T12:33:50;24.33;;;15.82;;
21661;SDS011;10992;48.170;8.596;2023-02-10T12:47:56;19.95;;;14.13;;
21661;SDS011;10992;48.170;8.596;2023-02-10T12:53:18;21.33;;;14.30;;
21661;SDS011;10992;48.170;8.596;2023-02-10T12:56:08;21.00;;;14.00;;
21661;SDS011;10992;48.170;8.596;2023-02-10T13:01:34;21.50;;;14.00;;
21661;SDS011;10992;48.170;8.596;2023-02-10T13:04:08;21.77;;;14.15;;
21661;SDS011;10992;48.170;8.596;2023-02-10T13:07:10;22.10;;;13.63;;
21661;SDS011;10992;48.170;8.596;2023-02-10T13:09:55;20.50;;;13.27;;
21661;SDS011;10992;48.170;8.596;2023-02-10T13:12:44;20.35;;;13.65;;
21661;SDS011;10992;48.170;8.596;2023-02-10T13:15:19;20.13;;;13.57;;
21661;SDS011;10992;48.170;8.596;2023-02-10T13:18:01;21.80;;;14.15;;
21661;SDS011;10992;48.170;8.596;2023-02-10T13:28:45;21.60;;;13.93;;
21661;SDS011;10992;48.170;8.596;2023-02-10T13:36:57;17.60;;;13.65;;
21661;SDS011;10992;48.170;8.596;2023-02-10T13:39:55;22.35;;;14.27;;
21661;SDS011;10992;48.170;8.596;2023-02-10T13:42:38;24.25;;;14.02;;
21661;SDS011;10992;48.170;8.596;2023-02-10T14:05:38;21.38;;;16.73;;
21661;SDS011;10992;48.170;8.596;2023-02-10T14:11:00;23.38;;;16.27;;
21661;SDS011;10992;48.170;8.596;2023-02-10T14:14:01;24.33;;;16.80;;
21661;SDS011;10992;48.170;8.596;2023-02-10T14:16:37;23.33;;;15.93;;
21661;SDS011;10992;48.170;8.596;2023-02-10T14:19:19;22.25;;;16.17;;
21661;SDS011;10992;48.170;8.596;2023-02-10T14:22:05;21.92;;;15.70;;
21661;SDS011;10992;48.170;8.596;2023-02-10T14:24:46;22.60;;;16.02;;
21661;SDS011;10992;48.170;8.596;2023-02-10T14:27:17;24.25;;;17.48;;
21661;SDS011;10992;48.170;8.596;2023-02-10T14:29:47;24.35;;;16.38;;
21661;SDS011;10992;48.170;8.596;2023-02-10T14:32:17;23.17;;;16.50;;
21661;SDS011;10992;48.170;8.596;2023-02-10T14:34:56;23.42;;;16.95;;
21661;SDS011;10992;48.170;8.596;2023-02-10T14:37:25;26.52;;;17.38;;
21661;SDS011;10992;48.170;8.596;2023-02-10T14:39:54;27.23;;;17.85;;
21661;SDS011;10992;48.170;8.596;2023-02-10T14:42:21;24.70;;;17.63;;
21661;SDS011;10992;48.170;8.596;2023-02-10T14:44:50;23.42;;;16.55;;
21661;SDS011;10992;48.170;8.596;2023-02-10T14:47:19;25.25;;;15.85;;
21661;SDS011;10992;48.170;8.596;2023-02-10T14:49:54;22.17;;;16.55;;
21661;SDS011;10992;48.170;8.596;2023-02-10T14:52:26;19.25;;;14.85;;
21661;SDS011;10992;48.170;8.596;2023-02-10T14:57:49;20.15;;;15.50;;
21661;SDS011;10992;48.170;8.596;2023-02-10T15:00:16;20.38;;;14.77;;
21661;SDS011;10992;48.170;8.596;2023-02-10T15:02:47;22.67;;;15.65;;
21661;SDS011;10992;48.170;8.596;2023-02-10T15:05:18;21.63;;;14.93;;
21661;SDS011;10992;48.170;8.596;2023-02-10T15:07:48;20.65;;;15.07;;
21661;SDS011;10992;48.170;8.596;2023-02-10T15:12:50;21.10;;;14.57;;
21661;SDS011;10992;48.170;8.596;2023-02-10T15:18:08;19.42;;;14.05;;
21661;SDS011;10992;48.170;8.596;2023-02-10T15:20:50;20.83;;;14.80;;
21661;SDS011;10992;48.170;8.596;2023-02-10T15:23:25;18.45;;;14.13;;
21661;SDS011;10992;48.170;8.596;2023-02-10T15:25:59;19.15;;;13.93;;
21661;SDS011;10992;48.170;8.596;2023-02-10T15:28:34;23.20;;;15.40;;
21661;SDS011;10992;48.170;8.596;2023-02-10T15:31:03;19.67;;;13.40;;
21661;SDS011;10992;48.170;8.596;2023-02-10T15:33:49;18.77;;;12.85;;
21661;SDS011;10992;48.170;8.596;2023-02-10T15:36:21;19.15;;;12.88;;
21661;SDS011;10992;48.170;8.596;2023-02-10T15:41:33;17.88;;;13.23;;
21661;SDS011;10992;48.170;8.596;2023-02-10T15:44:05;23.30;;;14.00;;
21661;SDS011;10992;48.170;8.596;2023-02-10T15:47:38;20.88;;;13.88;;
21661;SDS011;10992;48.170;8.596;2023-02-10T15:49:44;21.35;;;14.40;;
21661;SDS011;10992;48.170;8.596;2023-02-10T15:52:22;19.85;;;13.90;;
21661;SDS011;10992;48.170;8.596;2023-02-10T15:54:51;21.50;;;13.38;;
21661;SDS011;10992;48.170;8.596;2023-02-10T15:57:21;22.48;;;15.32;;
21661;SDS011;10992;48.170;8.596;2023-02-10T15:59:48;21.92;;;12.73;;
21661;SDS011;10992;48.170;8.596;2023-02-10T16:02:17;23.80;;;15.32;;
21661;SDS011;10992;48.170;8.596;2023-02-10T16:04:45;23.08;;;16.10;;
21661;SDS011;10992;48.170;8.596;2023-02-10T16:07:19;26.48;;;17.27;;
21661;SDS011;10992;48.170;8.596;2023-02-10T16:09:50;27.90;;;18.23;;
21661;SDS011;10992;48.170;8.596;2023-02-10T16:12:17;28.10;;;18.55;;
21661;SDS011;10992;48.170;8.596;2023-02-10T16:14:46;31.48;;;19.35;;
21661;SDS011;10992;48.170;8.596;2023-02-10T16:17:22;32.08;;;20.80;;
21661;SDS011;10992;48.170;8.596;2023-02-10T16:19:52;40.25;;;23.67;;
21661;SDS011;10992;48.170;8.596;2023-02-10T16:22:19;33.70;;;21.33;;
21661;SDS011;10992;48.170;8.596;2023-02-10T16:24:46;31.05;;;19.13;;
21661;SDS011;10992;48.170;8.596;2023-02-10T16:27:14;30.05;;;20.50;;
21661;SDS011;10992;48.170;8.596;2023-02-10T16:29:42;38.42;;;22.15;;
21661;SDS011;10992;48.170;8.596;2023-02-10T16:32:09;39.55;;;22.90;;
21661;SDS011;10992;48.170;8.596;2023-02-10T16:34:37;36.40;;;22.70;;
21661;SDS011;10992;48.170;8.596;2023-02-10T16:37:04;36.22;;;23.13;;
21661;SDS011;10992;48.170;8.596;2023-02-10T16:39:31;34.63;;;23.05;;
21661;SDS011;10992;48.170;8.596;2023-02-10T16:41:58;37.30;;;23.63;;
21661;SDS011;10992;48.170;8.596;2023-02-10T16:44:26;36.03;;;22.50;;
21661;SDS011;10992;48.170;8.596;2023-02-10T16:46:53;35.53;;;23.55;;
21661;SDS011;10992;48.170;8.596;2023-02-10T16:49:20;37.70;;;22.45;;
21661;SDS011;10992;48.170;8.596;2023-02-10T16:51:47;38.40;;;23.40;;
21661;SDS011;10992;48.170;8.596;2023-02-10T16:54:15;38.65;;;24.65;;
21661;SDS011;10992;48.170;8.596;2023-02-10T16:56:42;36.92;;;24.10;;
21661;SDS011;10992;48.170;8.596;2023-02-10T16:59:14;35.83;;;23.05;;
21661;SDS011;10992;48.170;8.596;2023-02-10T17:01:43;38.35;;;22.55;;
21661;SDS011;10992;48.170;8.596;2023-02-10T17:04:11;38.67;;;24.23;;
21661;SDS011;10992;48.170;8.596;2023-02-10T17:06:42;39.80;;;25.80;;
21661;SDS011;10992;48.170;8.596;2023-02-10T17:09:19;49.88;;;29.88;;
21661;SDS011;10992;48.170;8.596;2023-02-10T17:11:49;50.72;;;32.70;;